Time;durP1;ratioP1;P1;durP2;ratioP2;P2;SDS_P1;SDS_P2;PMS_P1;PMS_P2;Temp;Humidity;BMP_temperature;BMP_pressure;BME280_temperature;BME280_humidity;BME280_pressure;Samples;Min_cycle;Max_cycle;Signal;HPM_P1;HPM_P2
2022/10/06 00:01:40;;;;;;;10.63;7.70;;;;;;;13.29;96.65;98904.81;4156124;28;20646;-84
2022/10/06 00:03:43;;;;;;;12.07;7.80;;;;;;;13.29;97.36;98910.06;4158418;28;22941;-84
2022/10/06 00:05:46;;;;;;;8.30;6.60;;;;;;;13.26;97.21;98905.88;4164357;28;20776;-85
2022/10/06 00:07:49;;;;;;;10.30;7.87;;;;;;;13.26;97.74;98912.88;4165212;28;21264;-85
2022/10/06 00:09:52;;;;;;;17.37;10.13;;;;;;;13.25;96.23;98914.69;4159405;28;20637;-85
2022/10/06 00:11:55;;;;;;;12.60;7.87;;;;;;;13.25;97.38;98926.94;4147483;28;20673;-85
2022/10/06 00:13:58;;;;;;;9.23;7.37;;;;;;;13.23;97.44;98919.19;4159813;28;20630;-85
2022/10/06 00:16:01;;;;;;;9.30;6.97;;;;;;;13.22;97.64;98929.78;4165084;28;20625;-85
2022/10/06 00:18:06;;;;;;;7.57;6.77;;;;;;;13.19;97.55;98932.59;4167323;28;20649;-85
2022/10/06 00:20:09;;;;;;;8.83;6.70;;;;;;;13.18;97.53;98933.50;4162656;28;20990;-85
2022/10/06 00:22:12;;;;;;;8.40;7.00;;;;;;;13.15;97.55;98933.72;4163715;28;20642;-85
2022/10/06 00:24:15;;;;;;;9.20;7.33;;;;;;;13.08;97.21;98935.06;4164562;28;20642;-85
2022/10/06 00:26:18;;;;;;;9.17;6.40;;;;;;;13.06;97.16;98934.31;4163801;28;20638;-85
2022/10/06 00:28:21;;;;;;;7.80;7.00;;;;;;;13.06;97.63;98939.53;4169387;28;20645;-85
2022/10/06 00:30:26;;;;;;;12.57;6.53;;;;;;;13.06;97.61;98939.53;4160664;28;21645;-85
2022/10/06 00:32:29;;;;;;;7.40;6.70;;;;;;;13.05;97.78;98937.88;4161135;28;20674;-85
2022/10/06 00:34:35;;;;;;;10.13;7.27;;;;;;;13.03;96.92;98939.75;4173978;28;20641;-85
2022/10/06 00:36:38;;;;;;;11.90;7.60;;;;;;;13.04;97.75;98941.44;4154887;28;20646;-85
2022/10/06 00:38:41;;;;;;;9.03;7.20;;;;;;;13.02;97.05;98938.09;4166561;28;20770;-85
2022/10/06 00:40:48;;;;;;;7.40;6.70;;;;;;;13.01;96.74;98946.88;4163414;28;20633;-85
2022/10/06 00:42:54;;;;;;;9.40;6.63;;;;;;;13.00;97.67;98947.81;4163128;28;20645;-85
2022/10/06 00:44:58;;;;;;;9.73;6.87;;;;;;;12.99;96.48;98945.28;4160449;28;20638;-85
2022/10/06 00:47:01;;;;;;;10.03;7.50;;;;;;;12.97;97.16;98953.22;4167964;28;21802;-85
2022/10/06 00:49:10;;;;;;;9.47;6.63;;;;;;;12.96;96.62;98954.19;4165808;28;20630;-85
2022/10/06 00:51:15;;;;;;;7.77;6.50;;;;;;;12.95;96.72;98955.13;4171059;28;20649;-85
2022/10/06 00:53:18;;;;;;;9.33;7.30;;;;;;;12.93;97.46;98964.00;4168756;28;20650;-85
2022/10/06 00:55:22;;;;;;;9.70;7.40;;;;;;;12.90;97.73;98957.19;4169404;28;20709;-85
2022/10/06 00:57:26;;;;;;;9.97;6.50;;;;;;;12.91;97.27;98952.78;4172714;28;20716;-85
2022/10/06 00:59:29;;;;;;;10.03;7.20;;;;;;;12.92;96.88;98955.31;4168159;28;20752;-85
2022/10/06 01:01:32;;;;;;;9.43;6.50;;;;;;;12.93;97.22;98962.25;4169364;28;20640;-84
2022/10/06 01:03:37;;;;;;;12.43;6.67;;;;;;;12.94;97.97;98965.69;4175238;28;20648;-85
2022/10/06 01:05:45;;;;;;;9.50;6.40;;;;;;;12.93;97.09;98972.72;4168517;28;20691;-84
2022/10/06 01:07:49;;;;;;;8.97;6.20;;;;;;;12.92;97.72;98965.78;4151612;28;20650;-85
2022/10/06 01:09:52;;;;;;;8.73;6.50;;;;;;;12.90;97.86;98959.81;4174240;28;20643;-85
2022/10/06 01:11:58;;;;;;;9.20;6.00;;;;;;;12.90;97.62;98974.66;4171517;28;20688;-85
2022/10/06 01:14:01;;;;;;;10.00;6.50;;;;;;;12.89;97.77;98968.59;4166083;28;20759;-86
2022/10/06 01:16:10;;;;;;;11.00;6.90;;;;;;;12.89;97.01;98971.22;4169622;28;20691;-85
2022/10/06 01:18:16;;;;;;;7.13;6.13;;;;;;;12.86;97.32;98967.97;4171032;28;20660;-85
2022/10/06 01:20:20;;;;;;;7.30;5.80;;;;;;;12.86;97.54;98967.97;4169068;28;21020;-85
2022/10/06 01:22:27;;;;;;;8.27;6.17;;;;;;;12.83;97.29;98966.38;4166111;28;20641;-85
2022/10/06 01:24:30;;;;;;;11.70;6.37;;;;;;;12.81;97.59;98962.16;4149024;28;21259;-85
2022/10/06 01:26:35;;;;;;;10.10;7.23;;;;;;;12.80;97.31;98974.38;4178666;28;20622;-85
2022/10/06 01:28:39;;;;;;;8.70;5.90;;;;;;;12.77;97.77;98974.56;4172899;28;21057;-85
2022/10/06 01:30:49;;;;;;;8.33;5.87;;;;;;;12.75;96.59;98979.06;4170657;28;20647;-85
2022/10/06 01:32:53;;;;;;;12.60;6.80;;;;;;;12.73;97.48;98983.56;4158074;28;20634;-85
2022/10/06 01:34:56;;;;;;;10.70;6.57;;;;;;;12.72;97.00;98987.13;4158107;28;20634;-85
2022/10/06 01:36:59;;;;;;;9.60;6.10;;;;;;;12.74;97.43;98987.03;4176267;28;21809;-85
2022/10/06 01:39:04;;;;;;;8.67;6.20;;;;;;;12.72;97.88;98992.34;4171695;28;21034;-85
2022/10/06 01:41:07;;;;;;;7.17;5.80;;;;;;;12.70;97.47;98994.25;4170490;28;20647;-85
2022/10/06 01:43:10;;;;;;;8.00;6.33;;;;;;;12.70;97.49;99001.22;4170360;28;20635;-85
2022/10/06 01:45:13;;;;;;;9.23;6.43;;;;;;;12.67;97.70;99003.22;4168520;28;20735;-85
2022/10/06 01:47:16;;;;;;;8.97;6.30;;;;;;;12.66;96.70;99004.13;4169981;28;20659;-85
2022/10/06 01:49:19;;;;;;;9.00;6.57;;;;;;;12.63;97.43;99006.94;4167894;28;20734;-85
2022/10/06 01:51:22;;;;;;;10.27;6.10;;;;;;;12.62;95.96;99002.66;4173600;28;20635;-85
2022/10/06 01:53:25;;;;;;;9.60;6.90;;;;;;;12.61;97.55;99008.81;4166522;28;20642;-85
2022/10/06 01:55:30;;;;;;;7.90;6.67;;;;;;;12.59;97.55;99008.09;4157671;28;21253;-85
2022/10/06 01:57:38;;;;;;;10.57;6.30;;;;;;;12.55;97.03;99006.56;4169449;28;20633;-85
2022/10/06 01:59:42;;;;;;;8.80;6.73;;;;;;;12.54;96.23;99002.25;4152618;28;20695;-85
2022/10/06 02:01:45;;;;;;;9.23;6.50;;;;;;;12.53;97.15;99004.06;4153858;28;20655;-85
2022/10/06 02:03:48;;;;;;;8.87;6.73;;;;;;;12.50;96.61;99006.84;4173963;28;20629;-85
2022/10/06 02:05:51;;;;;;;12.17;7.30;;;;;;;12.50;96.27;98996.41;4159922;28;20638;-85
2022/10/06 02:07:54;;;;;;;7.43;6.03;;;;;;;12.46;97.78;98999.28;4166891;28;20642;-85
2022/10/06 02:09:57;;;;;;;8.70;6.00;;;;;;;12.44;96.62;98990.69;4158166;28;20681;-86
2022/10/06 02:12:03;;;;;;;8.03;6.07;;;;;;;12.38;96.48;98996.31;4170251;28;20684;-86
2022/10/06 02:14:06;;;;;;;12.97;7.00;;;;;;;12.32;95.78;98994.91;4190262;28;20632;-85
2022/10/06 02:16:10;;;;;;;9.57;6.03;;;;;;;12.31;96.71;99000.22;4154604;28;20645;-85
2022/10/06 02:18:13;;;;;;;12.20;6.97;;;;;;;12.31;97.28;98995.00;4156452;28;20690;-85
2022/10/06 02:20:16;;;;;;;8.43;6.13;;;;;;;12.32;96.31;99004.53;4168923;28;20682;-85
2022/10/06 02:22:19;;;;;;;6.90;6.20;;;;;;;12.33;97.53;99006.22;4170752;28;21209;-85
2022/10/06 02:24:24;;;;;;;7.43;6.23;;;;;;;12.33;98.31;99019.31;4168548;28;20625;-85
2022/10/06 02:26:27;;;;;;;8.07;6.37;;;;;;;12.34;98.31;99018.34;4152831;28;20733;-84
2022/10/06 02:28:32;;;;;;;8.80;7.27;;;;;;;12.35;97.96;99028.72;4160406;28;20635;-84
2022/10/06 02:30:37;;;;;;;9.70;6.90;;;;;;;12.31;97.48;99037.69;4171428;28;21832;-86
2022/10/06 02:32:42;;;;;;;10.10;6.60;;;;;;;12.27;97.06;99036.19;4169480;28;20660;-85
2022/10/06 02:34:46;;;;;;;7.97;5.73;;;;;;;12.25;98.25;99031.97;4154396;28;21468;-85
2022/10/06 02:36:49;;;;;;;14.67;6.37;;;;;;;12.21;97.82;99032.25;4171270;28;20636;-85
2022/10/06 02:38:53;;;;;;;7.87;6.37;;;;;;;12.20;96.52;99028.81;4168733;28;20660;-86
2022/10/06 02:40:56;;;;;;;8.97;6.10;;;;;;;12.18;96.11;99032.44;4173111;28;20629;-86
2022/10/06 02:42:59;;;;;;;7.30;6.20;;;;;;;12.16;98.06;99040.38;4168473;28;20990;-85
2022/10/06 02:45:06;;;;;;;8.17;6.40;;;;;;;12.16;97.53;99050.81;4156540;28;20985;-85
2022/10/06 02:47:12;;;;;;;11.90;6.83;;;;;;;12.15;96.35;99051.78;4170210;28;20641;-85
2022/10/06 02:49:15;;;;;;;7.57;6.20;;;;;;;12.16;96.31;99057.84;4169779;28;20664;-86
2022/10/06 02:51:20;;;;;;;7.10;6.00;;;;;;;12.14;96.77;99050.09;4172325;28;20658;-85
2022/10/06 02:53:24;;;;;;;7.73;5.80;;;;;;;12.07;97.31;99063.63;4171508;28;20620;-85
2022/10/06 02:55:29;;;;;;;6.30;5.70;;;;;;;12.03;96.33;99057.72;4156538;28;20648;-85
2022/10/06 02:57:32;;;;;;;8.70;5.93;;;;;;;12.04;96.80;99061.19;4175309;28;21202;-85
2022/10/06 02:59:36;;;;;;;8.53;6.47;;;;;;;12.10;95.51;99068.66;4157671;28;20761;-85
2022/10/06 03:01:41;;;;;;;9.90;6.30;;;;;;;12.14;97.00;99068.41;4167354;28;21166;-85
2022/10/06 03:03:49;;;;;;;10.17;6.90;;;;;;;12.17;98.30;99070.81;4151134;28;20635;-85
2022/10/06 03:05:59;;;;;;;6.90;5.93;;;;;;;12.21;98.03;99071.47;4169981;28;20653;-85
2022/10/06 03:08:02;;;;;;;8.27;6.03;;;;;;;12.23;98.70;99077.47;4150737;28;20631;-85
2022/10/06 03:10:06;;;;;;;9.67;6.63;;;;;;;12.24;97.63;99083.44;4156151;28;20975;-85
2022/10/06 03:12:09;;;;;;;9.47;6.63;;;;;;;12.30;98.02;99087.50;4173072;28;20662;-86
2022/10/06 03:14:15;;;;;;;9.63;6.23;;;;;;;12.34;99.66;99083.75;4172933;28;20640;-85
2022/10/06 03:16:25;;;;;;;8.97;6.40;;;;;;;12.39;100.00;99100.03;4152830;28;20626;-85
2022/10/06 03:18:30;;;;;;;9.30;6.53;;;;;;;12.41;98.61;99100.78;4155895;28;20688;-85
2022/10/06 03:20:34;;;;;;;11.50;7.17;;;;;;;12.44;99.32;99100.59;4184640;28;20705;-84
2022/10/06 03:22:38;;;;;;;9.90;6.43;;;;;;;12.45;99.80;99110.13;4167189;28;20645;-85
2022/10/06 03:24:41;;;;;;;8.80;6.47;;;;;;;12.47;99.72;99111.69;4155983;28;20691;-86
2022/10/06 03:26:45;;;;;;;11.63;7.47;;;;;;;12.50;99.75;99127.22;4172963;28;20661;-85
2022/10/06 03:28:50;;;;;;;9.40;6.50;;;;;;;12.52;100.00;99116.66;4184667;28;20677;-86
2022/10/06 03:30:53;;;;;;;9.60;7.30;;;;;;;12.54;100.00;99125.25;4179862;28;20689;-86
2022/10/06 03:33:00;;;;;;;7.53;6.73;;;;;;;12.56;100.00;99128.66;4164014;28;20687;-86
2022/10/06 03:35:06;;;;;;;9.57;7.10;;;;;;;12.56;99.81;99137.31;4156558;28;20638;-86
2022/10/06 03:37:09;;;;;;;7.50;6.70;;;;;;;12.59;100.00;99131.91;4175333;28;20671;-85
2022/10/06 03:39:12;;;;;;;12.10;6.93;;;;;;;12.59;99.82;99141.56;4172283;28;21246;-85
2022/10/06 03:41:18;;;;;;;7.83;5.77;;;;;;;12.61;99.46;99134.44;4170191;28;21430;-85
2022/10/06 03:43:21;;;;;;;8.03;6.80;;;;;;;12.63;99.26;99136.03;4172912;28;20961;-86
2022/10/06 03:45:24;;;;;;;8.90;6.80;;;;;;;12.64;100.00;99139.50;4164349;28;21099;-86
2022/10/06 03:47:29;;;;;;;8.63;6.63;;;;;;;12.65;99.78;99146.41;4166702;28;20657;-85
2022/10/06 03:49:33;;;;;;;8.23;7.30;;;;;;;12.66;100.00;99145.47;4166635;28;20683;-85
2022/10/06 03:51:38;;;;;;;7.97;6.80;;;;;;;12.68;99.64;99151.47;4173620;28;20631;-85
2022/10/06 03:53:47;;;;;;;10.73;6.47;;;;;;;12.68;100.00;99163.59;4163264;28;20633;-85
2022/10/06 03:55:51;;;;;;;10.27;6.00;;;;;;;12.72;100.00;99161.66;4169548;28;21420;-85
2022/10/06 03:57:56;;;;;;;8.50;5.97;;;;;;;12.75;99.96;99164.09;4165075;28;20646;-85
2022/10/06 03:59:59;;;;;;;9.00;6.87;;;;;;;12.77;99.88;99163.06;4172050;28;20652;-84
2022/10/06 04:02:04;;;;;;;13.20;6.57;;;;;;;12.80;100.00;99169.91;4155226;28;20676;-86
2022/10/06 04:04:11;;;;;;;9.63;6.33;;;;;;;12.82;100.00;99174.16;4166981;28;21219;-86
2022/10/06 04:06:17;;;;;;;12.73;6.27;;;;;;;12.84;100.00;99179.28;4167376;28;20683;-86
2022/10/06 04:08:22;;;;;;;9.90;6.23;;;;;;;12.84;99.77;99169.66;4166915;28;20719;-86
2022/10/06 04:10:25;;;;;;;9.27;5.87;;;;;;;12.87;100.00;99171.22;4166365;28;20634;-85
2022/10/06 04:12:29;;;;;;;7.10;6.30;;;;;;;12.89;100.00;99172.81;4161109;28;20674;-84
2022/10/06 04:14:32;;;;;;;12.57;7.10;;;;;;;12.93;100.00;99173.47;4168366;28;21192;-85
2022/10/06 04:16:36;;;;;;;13.10;6.63;;;;;;;12.93;100.00;99182.19;4172024;28;22324;-86
2022/10/06 04:18:40;;;;;;;10.50;6.83;;;;;;;12.95;100.00;99187.34;4151788;28;21076;-86
2022/10/06 04:20:43;;;;;;;9.33;6.60;;;;;;;12.95;100.00;99193.41;4165573;28;20654;-85
2022/10/06 04:22:46;;;;;;;10.70;6.47;;;;;;;12.95;99.37;99190.78;4165312;28;20731;-86
2022/10/06 04:24:51;;;;;;;8.60;6.90;;;;;;;12.96;99.39;99195.09;4170356;28;21286;-86
2022/10/06 04:27:26;;;;;;;8.23;6.20;;;;;;;12.97;99.52;99196.75;4162711;28;20633;-86
2022/10/06 04:29:18;;;;;;;8.47;6.23;;;;;;;12.97;99.37;99191.53;4166719;28;20641;-86
2022/10/06 04:31:31;;;;;;;8.70;6.00;;;;;;;13.00;99.44;99195.75;4167599;28;20621;-86
2022/10/06 04:33:34;;;;;;;7.40;6.33;;;;;;;12.99;100.00;99197.53;4152395;28;20692;-86
2022/10/06 04:35:37;;;;;;;9.63;6.70;;;;;;;13.01;100.00;99203.50;4170565;28;20633;-86
2022/10/06 04:37:41;;;;;;;8.70;6.00;;;;;;;13.03;100.00;99206.03;4147294;28;20721;-86
2022/10/06 04:39:44;;;;;;;8.00;6.27;;;;;;;13.04;100.00;99210.34;4166270;28;20721;-86
2022/10/06 04:41:49;;;;;;;8.03;6.40;;;;;;;13.04;100.00;99200.72;4155335;28;20695;-86
2022/10/06 04:43:56;;;;;;;8.43;7.03;;;;;;;13.04;100.00;99211.19;4166883;28;20633;-85
2022/10/06 04:46:01;;;;;;;10.43;6.30;;;;;;;13.05;100.00;99212.03;4153457;28;21223;-86
2022/10/06 04:48:26;;;;;;;8.57;5.90;;;;;;;13.15;100.00;99218.41;4150012;28;21055;-85
2022/10/06 04:50:29;;;;;;;6.80;5.70;;;;;;;13.20;100.00;99218.03;4165883;28;20664;-85
2022/10/06 04:52:40;;;;;;;9.97;6.33;;;;;;;13.23;100.00;99222.25;4155964;28;20743;-86
2022/10/06 04:54:44;;;;;;;11.53;6.57;;;;;;;13.29;100.00;99224.47;4161141;28;20666;-86
2022/10/06 04:56:48;;;;;;;13.10;6.80;;;;;;;13.33;100.00;99232.06;4177231;28;22853;-85
2022/10/06 04:58:54;;;;;;;8.93;6.57;;;;;;;13.35;100.00;99229.34;4154937;28;21047;-86
2022/10/06 05:00:57;;;;;;;13.20;6.80;;;;;;;13.37;100.00;99227.50;4156399;28;20668;-86
2022/10/06 05:03:00;;;;;;;10.50;6.23;;;;;;;13.37;100.00;99230.09;4173603;28;20984;-86
2022/10/06 05:05:04;;;;;;;11.80;7.60;;;;;;;13.39;100.00;99234.28;4175951;28;20707;-86
2022/10/06 05:07:07;;;;;;;8.50;7.10;;;;;;;13.45;100.00;99233.91;4160374;28;20634;-86
2022/10/06 05:09:14;;;;;;;13.17;7.03;;;;;;;13.46;100.00;99242.66;4159493;28;20646;-86
2022/10/06 05:11:29;;;;;;;12.90;11.60;;;;;;;13.44;100.00;99245.38;4155767;28;20646;-86
2022/10/06 05:13:35;;;;;;;14.13;11.60;;;;;;;13.47;100.00;99254.78;4168581;28;21219;-86
2022/10/06 05:15:39;;;;;;;11.60;10.27;;;;;;;13.50;100.00;99250.22;4170110;28;20685;-85
2022/10/06 05:17:42;;;;;;;10.93;9.37;;;;;;;13.54;100.00;99251.69;4149208;28;20637;-86
2022/10/06 05:19:45;;;;;;;11.00;7.87;;;;;;;13.55;100.00;99256.03;4160176;28;20641;-86
2022/10/06 05:21:48;;;;;;;15.70;10.40;;;;;;;13.57;100.00;99253.31;4166561;28;20703;-86
2022/10/06 05:23:56;;;;;;;11.70;8.73;;;;;;;13.60;100.00;99255.75;4175662;28;20717;-86
2022/10/06 05:26:00;;;;;;;10.43;8.10;;;;;;;13.63;100.00;99255.56;4159148;28;20755;-87
2022/10/06 05:28:03;;;;;;;9.50;7.97;;;;;;;13.65;100.00;99255.38;4152878;28;20639;-86
2022/10/06 05:30:09;;;;;;;13.13;8.70;;;;;;;13.66;100.00;99269.31;4166876;28;20672;-86
2022/10/06 05:32:13;;;;;;;10.80;9.33;;;;;;;13.67;100.00;99274.44;4152251;28;20634;-86
2022/10/06 05:34:16;;;;;;;11.10;9.10;;;;;;;13.68;100.00;99270.91;4166937;28;20648;-86
2022/10/06 05:36:23;;;;;;;12.53;8.80;;;;;;;13.68;100.00;99281.41;4155234;28;20672;-87
2022/10/06 05:38:28;;;;;;;11.63;8.33;;;;;;;13.71;100.00;99290.81;4172716;28;20630;-87
2022/10/06 05:40:31;;;;;;;10.37;7.87;;;;;;;13.69;100.00;99282.22;4180945;28;20732;-87
2022/10/06 05:42:34;;;;;;;11.20;8.07;;;;;;;13.70;100.00;99281.28;4155307;28;20667;-87
2022/10/06 05:44:37;;;;;;;13.00;7.80;;;;;;;13.71;100.00;99278.59;4156745;28;20639;-88
2022/10/06 05:46:45;;;;;;;8.80;7.20;;;;;;;13.72;100.00;99285.50;4157011;28;20729;-87
2022/10/06 05:48:50;;;;;;;14.33;7.13;;;;;;;13.76;100.00;99288.78;4175070;28;21067;-87
2022/10/06 05:51:00;;;;;;;9.47;7.23;;;;;;;13.80;100.00;99290.25;4174971;28;20692;-87
2022/10/06 05:53:03;;;;;;;9.40;6.93;;;;;;;13.83;100.00;99296.19;4141825;28;21209;-86
2022/10/06 05:55:07;;;;;;;11.50;8.50;;;;;;;13.84;100.00;99292.59;4147858;28;20630;-87
2022/10/06 05:57:11;;;;;;;9.53;7.30;;;;;;;13.87;100.00;99302.91;4164425;28;20652;-88
2022/10/06 05:59:14;;;;;;;12.27;7.00;;;;;;;13.91;100.00;99303.56;4157171;28;20748;-87
2022/10/06 06:01:19;;;;;;;9.13;7.47;;;;;;;13.93;100.00;99310.38;4156944;28;20654;-87
2022/10/06 06:03:24;;;;;;;15.33;7.27;;;;;;;13.98;100.00;99307.47;4174708;28;20627;-87
2022/10/06 06:05:27;;;;;;;8.10;6.77;;;;;;;14.01;100.00;99313.41;4159264;28;21231;-87
2022/10/06 06:07:31;;;;;;;10.63;7.67;;;;;;;14.05;100.00;99322.78;4166215;28;21255;-87
2022/10/06 06:09:34;;;;;;;7.70;6.53;;;;;;;14.08;100.00;99327.84;4174132;28;20721;-87
2022/10/06 06:11:39;;;;;;;9.83;6.60;;;;;;;14.09;100.00;99329.53;4165900;28;20771;-88
2022/10/06 06:13:43;;;;;;;7.37;6.63;;;;;;;14.09;100.00;99329.53;4174181;28;20630;-87
2022/10/06 06:16:00;;;;;;;9.33;6.63;;;;;;;14.08;100.00;99337.50;4156664;28;20690;-87
2022/10/06 06:18:04;;;;;;;8.77;6.47;;;;;;;14.05;100.00;99338.50;4156597;28;20637;-87
2022/10/06 06:20:10;;;;;;;10.53;6.97;;;;;;;14.05;100.00;99343.75;4170863;28;20635;-87
2022/10/06 06:22:13;;;;;;;9.10;7.00;;;;;;;14.04;100.00;99336.78;4169040;28;20658;-87
2022/10/06 06:24:18;;;;;;;9.20;6.93;;;;;;;14.06;100.00;99350.72;4167244;28;20632;-87
2022/10/06 06:26:23;;;;;;;10.57;7.50;;;;;;;14.04;100.00;99352.53;4153949;28;20638;-87
2022/10/06 06:28:27;;;;;;;11.30;7.90;;;;;;;14.03;100.00;99358.72;4155200;28;20643;-87
2022/10/06 06:30:31;;;;;;;13.93;8.40;;;;;;;14.00;100.00;99352.84;4148207;28;20631;-87
2022/10/06 06:32:34;;;;;;;11.17;7.27;;;;;;;14.03;100.00;99356.09;4169849;28;20633;-86
2022/10/06 06:34:38;;;;;;;11.93;8.00;;;;;;;14.05;100.00;99356.06;4151077;28;20623;-87
2022/10/06 06:36:46;;;;;;;8.87;7.37;;;;;;;14.11;100.00;99368.78;4154459;28;21276;-86
2022/10/06 06:38:53;;;;;;;10.30;7.67;;;;;;;14.13;100.00;99367.72;4169780;28;21304;-87
2022/10/06 06:40:57;;;;;;;7.83;6.80;;;;;;;14.16;100.00;99372.78;4164895;28;20635;-87
2022/10/06 06:43:00;;;;;;;11.80;8.03;;;;;;;14.20;100.00;99374.31;4166902;28;20658;-87
2022/10/06 06:45:15;;;;;;;13.13;7.33;;;;;;;14.25;100.00;99377.47;4151404;28;20664;-87
2022/10/06 06:47:30;;;;;;;11.40;8.40;;;;;;;14.31;100.00;99382.34;4170908;28;21067;-87
2022/10/06 06:49:35;;;;;;;10.00;8.73;;;;;;;14.35;100.00;99394.34;4164078;28;20694;-87
2022/10/06 06:51:48;;;;;;;16.23;9.67;;;;;;;14.40;100.00;99397.50;4163935;28;20740;-87
2022/10/06 06:53:53;;;;;;;13.63;9.73;;;;;;;14.41;100.00;99399.22;4172910;28;20690;-87
2022/10/06 06:55:56;;;;;;;14.37;10.00;;;;;;;14.45;100.00;99401.53;4174026;28;20733;-87
2022/10/06 06:57:59;;;;;;;11.03;9.80;;;;;;;14.49;100.00;99404.81;4157825;28;20634;-89
2022/10/06 07:00:06;;;;;;;11.80;8.60;;;;;;;14.52;100.00;99407.25;4154134;28;20723;-89
2022/10/06 07:02:11;;;;;;;12.10;8.67;;;;;;;14.56;100.00;99408.75;4168279;28;20650;-88
2022/10/06 07:04:18;;;;;;;10.20;7.63;;;;;;;14.62;100.00;99409.19;4143201;28;20645;-88
2022/10/06 07:06:22;;;;;;;11.67;9.03;;;;;;;14.66;100.00;99408.91;4169698;28;20638;-89
2022/10/06 07:08:31;;;;;;;10.43;8.80;;;;;;;14.72;100.00;99421.66;4180781;28;20672;-89
2022/10/06 07:10:36;;;;;;;9.73;8.20;;;;;;;14.77;100.00;99424.81;4170834;28;20639;-88
2022/10/06 07:12:39;;;;;;;12.53;7.57;;;;;;;14.83;100.00;99431.47;4168795;28;20667;-89
2022/10/06 07:25:05;;;;;;;12.87;8.50;;;;;;;14.85;100.00;99440.91;4148546;28;20645;-88
2022/10/06 07:26:39;;;;;;;8.40;7.50;;;;;;;14.84;100.00;99452.38;4149134;28;20659;-88
2022/10/06 07:28:42;;;;;;;12.00;8.10;;;;;;;14.87;100.00;99451.34;4143542;28;20728;-89
2022/10/06 07:30:47;;;;;;;10.67;7.60;;;;;;;14.87;100.00;99457.44;4165394;28;20665;-89
2022/10/06 07:32:54;;;;;;;12.17;8.27;;;;;;;14.89;100.00;99447.69;4166367;28;21031;-88
2022/10/06 07:34:59;;;;;;;10.03;8.17;;;;;;;14.92;100.00;99455.38;4146369;28;20644;-88
2022/10/06 07:37:02;;;;;;;8.47;7.50;;;;;;;14.94;100.00;99457.91;4161469;28;20738;-89
2022/10/06 07:39:09;;;;;;;11.80;7.40;;;;;;;14.94;100.00;99450.00;4142030;28;20699;-88
2022/10/06 07:41:14;;;;;;;8.50;7.50;;;;;;;14.94;100.00;99460.53;4152410;28;20763;-88
2022/10/06 07:43:29;;;;;;;8.70;7.23;;;;;;;14.97;100.00;99457.69;4149176;28;20649;-88
2022/10/06 07:45:40;;;;;;;9.97;7.00;;;;;;;15.00;100.00;99468.00;4166761;28;20743;-88
2022/10/06 07:47:57;;;;;;;9.33;7.37;;;;;;;15.05;100.00;99477.31;4155137;28;20637;-88
2022/10/06 07:50:00;;;;;;;10.13;8.00;;;;;;;15.08;100.00;99479.72;4163887;28;20634;-87
2022/10/06 07:52:04;;;;;;;9.73;7.50;;;;;;;15.11;100.00;99482.16;4153188;28;20635;-88
2022/10/06 07:54:07;;;;;;;11.80;8.27;;;;;;;15.15;100.00;99481.00;4159729;28;20654;-88
2022/10/06 07:56:47;;;;;;;9.43;7.57;;;;;;;15.23;100.00;99486.63;4134100;28;20640;-87
2022/10/06 07:58:50;;;;;;;13.87;12.23;;;;;;;15.30;100.00;99493.19;4137166;28;20643;-88
2022/10/06 08:00:53;;;;;;;15.67;12.27;;;;;;;15.36;100.00;99490.16;4167540;28;20642;-88
2022/10/06 08:02:56;;;;;;;14.20;11.00;;;;;;;15.44;100.00;99493.13;4165053;28;20660;-88
2022/10/06 08:04:59;;;;;;;15.00;8.90;;;;;;;15.53;100.00;99496.03;4143551;28;20695;-87
2022/10/06 08:07:03;;;;;;;16.93;13.90;;;;;;;15.59;100.00;99493.81;4172718;28;21238;-88
2022/10/06 08:09:06;;;;;;;16.93;9.70;;;;;;;15.70;100.00;99490.50;4165844;28;20681;-88
2022/10/06 08:11:09;;;;;;;13.30;8.87;;;;;;;15.79;100.00;99492.50;4150781;28;20740;-87
2022/10/06 08:13:14;;;;;;;14.70;9.33;;;;;;;15.89;100.00;99498.81;4160118;28;20773;-85
2022/10/06 08:15:17;;;;;;;10.10;8.20;;;;;;;16.01;100.00;99506.72;4145791;28;20668;-86
2022/10/06 08:17:20;;;;;;;11.80;9.07;;;;;;;16.11;100.00;99507.81;4161513;28;20678;-87
2022/10/06 08:19:24;;;;;;;9.30;8.33;;;;;;;16.18;100.00;99512.56;4158905;28;20727;-84
2022/10/06 08:21:28;;;;;;;9.17;8.10;;;;;;;16.25;100.00;99519.13;4145203;28;20649;-83
2022/10/06 08:23:31;;;;;;;10.13;8.47;;;;;;;16.31;100.00;99516.06;4162415;28;20664;-83
2022/10/06 08:25:41;;;;;;;13.10;8.33;;;;;;;16.37;100.00;99515.63;4152722;28;20655;-86
2022/10/06 08:27:44;;;;;;;12.00;8.73;;;;;;;16.43;100.00;99525.75;4165117;28;20677;-83
2022/10/06 08:29:54;;;;;;;12.87;9.17;;;;;;;16.48;100.00;99531.56;4180717;28;20634;-87
2022/10/06 08:31:58;;;;;;;13.03;8.10;;;;;;;16.53;100.00;99525.00;4148028;28;20633;-86
2022/10/06 08:34:01;;;;;;;12.70;8.07;;;;;;;16.57;100.00;99536.19;4148213;28;21215;-85
2022/10/06 08:36:07;;;;;;;12.27;9.43;;;;;;;16.63;100.00;99538.41;4146608;28;20737;-83
2022/10/06 08:38:11;;;;;;;12.80;8.10;;;;;;;16.64;100.00;99540.94;4157397;28;22518;-84
2022/10/06 08:40:15;;;;;;;9.23;7.47;;;;;;;16.67;100.00;99545.13;4155943;28;20737;-83
2022/10/06 08:42:23;;;;;;;9.93;8.20;;;;;;;16.70;100.00;99539.66;4158315;28;21225;-82
2022/10/06 08:44:30;;;;;;;11.17;8.80;;;;;;;16.75;100.00;99545.47;4161412;28;20659;-84
2022/10/06 08:46:37;;;;;;;10.17;8.50;;;;;;;16.82;100.00;99538.78;4167770;28;20644;-83
2022/10/06 08:48:40;;;;;;;10.80;8.23;;;;;;;16.87;100.00;99547.22;4170043;28;20628;-83
2022/10/06 08:50:52;;;;;;;9.70;7.37;;;;;;;16.91;100.00;99544.25;4170297;28;20674;-84
2022/10/06 08:53:03;;;;;;;11.40;7.10;;;;;;;16.98;100.00;99542.88;4173283;28;21034;-83
2022/10/06 08:55:14;;;;;;;10.50;6.90;;;;;;;17.05;100.00;99544.13;4168447;28;20640;-84
2022/10/06 08:57:19;;;;;;;11.20;6.60;;;;;;;17.12;100.00;99543.59;4164575;28;20637;-85
2022/10/06 08:59:22;;;;;;;8.67;7.03;;;;;;;17.20;100.00;99548.28;4166112;28;20651;-84
2022/10/06 09:01:27;;;;;;;6.10;5.50;;;;;;;17.25;100.00;99551.50;4144374;28;20823;-83
2022/10/06 09:03:32;;;;;;;7.03;4.93;;;;;;;17.28;99.84;99556.56;4169073;28;20656;-84
2022/10/06 09:05:36;;;;;;;7.90;4.53;;;;;;;17.31;97.11;99561.59;4155730;28;20649;-82
2022/10/06 09:07:44;;;;;;;7.33;4.80;;;;;;;17.37;98.08;99556.72;4165523;28;20669;-83
2022/10/06 09:09:58;;;;;;;6.40;5.10;;;;;;;17.43;97.58;99558.91;4163474;28;20682;-84
2022/10/06 09:12:06;;;;;;;7.53;4.03;;;;;;;17.48;97.03;99549.72;4162777;28;20656;-84
2022/10/06 09:14:14;;;;;;;8.03;4.53;;;;;;;17.52;96.09;99555.63;4169094;28;20632;-84
2022/10/06 09:16:18;;;;;;;6.20;4.40;;;;;;;17.58;95.68;99556.00;4165076;28;21057;-83
2022/10/06 09:18:24;;;;;;;6.97;4.40;;;;;;;17.71;95.18;99567.34;4163120;28;20639;-83
2022/10/06 09:20:41;;;;;;;7.23;4.20;;;;;;;17.89;94.32;99559.88;4164900;28;20625;-84
2022/10/06 09:22:44;;;;;;;6.37;3.40;;;;;;;17.96;94.15;99549.56;4168840;28;21187;-83
2022/10/06 09:24:49;;;;;;;8.47;3.87;;;;;;;18.02;93.60;99558.84;4175377;28;20656;-83
2022/10/06 09:26:53;;;;;;;6.03;3.13;;;;;;;18.06;92.87;99563.78;4166107;28;20634;-84
2022/10/06 09:28:56;;;;;;;4.60;3.67;;;;;;;18.07;91.37;99560.19;4163600;28;20715;-83
2022/10/06 09:31:01;;;;;;;6.37;3.40;;;;;;;18.09;90.12;99565.34;4151804;28;21259;-82
2022/10/06 09:33:05;;;;;;;7.63;3.17;;;;;;;18.09;89.14;99560.91;4154180;28;20642;-83
2022/10/06 09:35:17;;;;;;;7.87;2.70;;;;;;;18.10;88.35;99561.75;4162195;28;20673;-86
2022/10/06 09:37:22;;;;;;;9.70;3.17;;;;;;;18.08;86.00;99567.13;4175174;28;20649;-84
2022/10/06 09:39:27;;;;;;;4.13;2.13;;;;;;;18.13;86.71;99569.47;4163423;28;21236;-84
2022/10/06 09:41:37;;;;;;;4.83;2.57;;;;;;;18.21;85.08;99561.81;4172768;28;20990;-83
2022/10/06 09:43:41;;;;;;;6.90;2.80;;;;;;;18.25;86.01;99568.53;4164162;28;24898;-83
2022/10/06 09:45:44;;;;;;;7.40;2.67;;;;;;;18.34;86.68;99571.31;4149636;28;21138;-83
2022/10/06 09:47:47;;;;;;;6.77;2.40;;;;;;;18.41;85.60;99576.03;4152921;28;21224;-84
2022/10/06 09:50:03;;;;;;;8.83;2.87;;;;;;;18.50;85.30;99572.69;4162587;28;20639;-84
2022/10/06 09:52:11;;;;;;;3.20;2.03;;;;;;;18.52;83.47;99572.56;4147283;28;21252;-83
2022/10/06 09:54:17;;;;;;;9.07;6.67;;;;;;;18.43;81.73;99567.97;4156020;28;20634;-84